CheckWX is a tool to help pilots better visualize weather data.  It is not intended as a substitute for an official pre-flight weather briefing.

00:37:37 UTC

KSBN METAR
South Bend International Airport
South Bend, Indiana, USA
Current

44 mins ago

KSBN 182354Z 12005KT 10SM CLR 11/04 A2998 RMK AO2 SLP157 T01060039 10144 20106 56013
Observed
Oct-18 @ 23:54 UTC
Wind
  • 120° at 5 KTS
Visibility
10 SM
Flight Rules
VFR
Cloud Levels
  • Clear skies
Temperature
11°C / 52°F
Dewpoint
C / 39°F
Humidity
62%
Altimeter
29.98" Hg
Pressure
1015.22 hPa
Previous

2 hours ago

KSBN 182254Z 16005KT 10SM CLR 13/04 A2999 RMK AO2 SLP158 T01280039
Observed
Oct-18 @ 22:54 UTC
Wind
  • 160° at 5 KTS
Visibility
10 SM
Flight Rules
VFR
Cloud Levels
  • Clear skies
Temperature
13°C / 55°F
Dewpoint
C / 39°F
Humidity
55%
Altimeter
29.99" Hg
Pressure
1015.62 hPa
Previous

3 hours ago

KSBN 182154Z 17007KT 10SM CLR 14/04 A3000 RMK AO2 SLP163 T01390039
Observed
Oct-18 @ 21:54 UTC
Wind
  • 170° at 7 KTS
Visibility
10 SM
Flight Rules
VFR
Cloud Levels
  • Clear skies
Temperature
14°C / 57°F
Dewpoint
C / 39°F
Humidity
51%
Altimeter
30" Hg
Pressure
1015.92 hPa